Charlotte, North Carolina
Current Conditions -  °F | °C
As of 8:52 AM on Monday 26 Jan 2015 (Local Time) from KCLT Reporting Station
Broken Clouds Broken Clouds  
Wind Chill: 43°   Ceiling: 7000
Heat Index: 43°   Visibility: 10mi
Dew Point: 34°   Wind: 0mph
Humidity: 71%   Direction: NA
Pressure: 29.66"   Gusts: NA
Location:  35.22°N, 80.84°W
Report Text: KCLT 261352Z 00000KT 10SM BKN070 06/01 A2966 RMK AO2 SLP043 T00610011
Loading
Personal Weather Stations






























Interactive Weather Map New forecast layout! Learn more

10-Day Weather Forecast

Advertisements
Track Severe Weather on mobile